Canon, Georgia
Current Conditions -  °F | °C
As of 11:55 PM on Tuesday 25 Nov 2014 (Local Time) from KTOC Reporting Station
Drizzle Drizzle  
Wind Chill: 49°   Ceiling: 6000
Heat Index: 49°   Visibility: 10mi
Dew Point: 46°   Wind: 0mph
Humidity: 89%   Direction: NA
Pressure: 30.04"   Gusts: NA
Location:  34.35°N, 83.11°W
Report Text: KTOC 260455Z AUTO 00000KT 10SM -DZ OVC060 10/08 A3004 RMK AO2 T00950077
Loading
Personal Weather Stations






























Interactive Weather Map New forecast layout! Learn more

10-Day Weather Forecast

Advertisements
Track Severe Weather on mobile